createdAt,value
2022-11-27T00:02:10.894Z,26.10
2022-11-27T00:04:42.359Z,27.60
2022-11-27T00:07:12.325Z,26.20
2022-11-27T00:09:41.397Z,28.40
2022-11-27T00:12:13.990Z,23.40
2022-11-27T00:14:47.276Z,23.20
2022-11-27T00:17:22.355Z,22.53
2022-11-27T00:19:54.620Z,22.80
2022-11-27T00:22:23.333Z,20.90
2022-11-27T00:24:59.957Z,22.50
2022-11-27T00:27:29.635Z,21.73
2022-11-27T00:30:05.437Z,21.90
2022-11-27T00:32:35.945Z,21.27
2022-11-27T00:35:08.168Z,21.10
2022-11-27T00:37:42.749Z,21.57
2022-11-27T00:43:20.116Z,22.00
2022-11-27T00:46:01.630Z,19.67
2022-11-27T00:48:34.506Z,20.80
2022-11-27T00:51:11.024Z,19.63
2022-11-27T00:53:44.838Z,20.67
2022-11-27T00:56:18.358Z,19.00
2022-11-27T00:59:03.523Z,19.20
2022-11-27T01:01:34.447Z,20.10
2022-11-27T01:04:03.870Z,20.60
2022-11-27T01:06:32.151Z,20.70
2022-11-27T01:09:04.733Z,19.83
2022-11-27T01:11:36.176Z,19.73
2022-11-27T01:14:26.040Z,19.60
2022-11-27T01:16:54.190Z,19.97
2022-11-27T01:19:21.900Z,20.40
2022-11-27T01:21:49.603Z,18.87
2022-11-27T01:24:17.701Z,17.20
2022-11-27T01:26:46.054Z,17.27
2022-11-27T01:29:30.785Z,16.47
2022-11-27T01:31:58.665Z,17.60
2022-11-27T01:34:26.371Z,17.07
2022-11-27T01:36:54.455Z,18.00
2022-11-27T01:39:24.022Z,17.40
2022-11-27T01:41:51.843Z,19.03
2022-11-27T01:44:53.653Z,19.23
2022-11-27T01:47:29.161Z,19.00
2022-11-27T01:50:04.789Z,17.50
2022-11-27T01:52:35.455Z,18.67
2022-11-27T01:55:15.241Z,18.00
2022-11-27T01:57:48.985Z,18.80
2022-11-27T02:00:19.519Z,18.33
2022-11-27T02:02:47.528Z,16.57
2022-11-27T02:05:17.561Z,17.60
2022-11-27T02:07:45.738Z,19.30
2022-11-27T02:10:13.958Z,16.83
2022-11-27T02:12:49.063Z,14.50
2022-11-27T02:15:22.217Z,15.43
2022-11-27T02:17:53.343Z,16.87
2022-11-27T02:20:29.084Z,15.73
2022-11-27T02:23:09.770Z,16.73
2022-11-27T02:25:44.754Z,15.80
2022-11-27T02:28:26.120Z,15.40
2022-11-27T02:30:59.183Z,15.93
2022-11-27T02:33:27.427Z,15.73
2022-11-27T02:35:58.125Z,16.30
2022-11-27T02:38:29.500Z,17.80
2022-11-27T02:41:00.548Z,14.67
2022-11-27T02:43:31.785Z,14.20
2022-11-27T02:46:01.775Z,13.70
2022-11-27T02:48:32.645Z,16.37
2022-11-27T02:51:01.375Z,14.87
2022-11-27T02:53:32.280Z,14.07
2022-11-27T02:56:00.651Z,14.80
2022-11-27T02:58:29.413Z,14.77
2022-11-27T03:00:58.065Z,15.20
2022-11-27T03:03:31.048Z,14.77
2022-11-27T03:06:03.023Z,13.80
2022-11-27T03:08:33.661Z,14.77
2022-11-27T03:11:04.912Z,14.00
2022-11-27T03:13:35.883Z,15.53
2022-11-27T03:16:08.272Z,14.90
2022-11-27T03:18:40.898Z,14.70
2022-11-27T03:21:15.933Z,14.70
2022-11-27T03:23:43.569Z,14.50
2022-11-27T03:26:11.174Z,14.10
2022-11-27T03:28:39.305Z,14.30
2022-11-27T03:31:07.010Z,14.80
2022-11-27T03:33:34.652Z,14.57
2022-11-27T03:36:03.590Z,14.83
2022-11-27T03:38:31.200Z,15.67
2022-11-27T03:41:02.634Z,15.30
2022-11-27T03:43:34.202Z,15.27
2022-11-27T03:46:07.374Z,16.20
2022-11-27T03:48:38.900Z,14.53
2022-11-27T03:51:13.332Z,13.97
2022-11-27T03:53:50.127Z,15.40
2022-11-27T03:56:24.715Z,14.97
2022-11-27T03:58:55.964Z,14.13
2022-11-27T04:01:25.340Z,16.70
2022-11-27T04:03:53.107Z,15.00
2022-11-27T04:06:22.077Z,14.60
2022-11-27T04:08:49.761Z,16.37
2022-11-27T04:11:17.651Z,14.73
2022-11-27T04:13:45.310Z,16.90
2022-11-27T04:16:12.947Z,16.20
2022-11-27T04:18:40.595Z,16.10
2022-11-27T04:21:08.176Z,17.00
2022-11-27T04:23:38.516Z,16.87
2022-11-27T04:26:06.589Z,17.20
2022-11-27T04:28:34.200Z,17.20
2022-11-27T04:31:02.020Z,20.83
2022-11-27T04:33:29.743Z,17.70
2022-11-27T04:35:57.408Z,17.97
2022-11-27T04:38:24.982Z,19.60
2022-11-27T04:40:54.105Z,18.27
2022-11-27T04:43:22.094Z,19.33
2022-11-27T04:45:49.814Z,19.33
2022-11-27T04:48:17.448Z,20.20
2022-11-27T04:50:45.098Z,18.87
2022-11-27T04:53:13.186Z,20.20
2022-11-27T04:55:40.841Z,19.70
2022-11-27T04:58:09.814Z,20.10
2022-11-27T05:00:37.506Z,19.53
2022-11-27T05:03:05.205Z,18.77
2022-11-27T05:05:32.923Z,21.13
2022-11-27T05:08:00.823Z,22.37
2022-11-27T05:10:28.512Z,22.27
2022-11-27T05:12:56.123Z,22.20
2022-11-27T05:15:25.081Z,23.77
2022-11-27T05:17:52.775Z,22.60
2022-11-27T05:20:20.413Z,22.93
2022-11-27T05:22:49.604Z,24.00
2022-11-27T05:25:17.328Z,23.23
2022-11-27T05:27:45.020Z,25.67
2022-11-27T05:30:13.078Z,24.70
2022-11-27T05:32:42.212Z,24.10
2022-11-27T05:35:10.387Z,24.53
2022-11-27T05:37:38.220Z,25.10
2022-11-27T05:40:07.359Z,27.33
2022-11-27T05:42:35.037Z,26.13
2022-11-27T05:45:02.757Z,25.80
2022-11-27T05:47:30.367Z,25.50
2022-11-27T05:49:59.206Z,24.10
2022-11-27T05:52:26.791Z,23.53
2022-11-27T05:54:54.939Z,25.60
2022-11-27T05:57:22.563Z,25.73
2022-11-27T05:59:50.185Z,26.00
2022-11-27T06:02:22.573Z,24.27
2022-11-27T06:04:51.478Z,25.10
2022-11-27T06:07:20.472Z,23.37
2022-11-27T06:09:48.206Z,23.93
2022-11-27T06:12:15.824Z,25.13
2022-11-27T06:14:43.515Z,24.50
2022-11-27T06:17:11.431Z,23.00
2022-11-27T06:19:39.094Z,24.23
2022-11-27T06:22:06.819Z,23.90
2022-11-27T06:24:35.773Z,21.57
2022-11-27T06:27:03.371Z,22.63
2022-11-27T06:29:30.955Z,22.33
2022-11-27T06:31:58.564Z,22.80
2022-11-27T06:34:26.372Z,24.00
2022-11-27T06:36:54.009Z,22.43
2022-11-27T06:39:21.554Z,21.80
2022-11-27T06:41:50.473Z,22.73
2022-11-27T06:44:18.021Z,22.80
2022-11-27T06:46:45.854Z,22.60
2022-11-27T06:49:13.597Z,24.67
2022-11-27T06:51:41.254Z,23.40
2022-11-27T06:54:08.877Z,22.33
2022-11-27T06:56:36.438Z,21.73
2022-11-27T06:59:05.667Z,23.03
2022-11-27T07:01:34.302Z,23.30
2022-11-27T07:04:01.968Z,22.00
2022-11-27T07:06:29.884Z,21.60
2022-11-27T07:08:57.608Z,22.60
2022-11-27T07:11:27.003Z,21.50
2022-11-27T07:13:56.891Z,20.37
2022-11-27T07:16:26.702Z,20.50
2022-11-27T07:18:56.801Z,24.20
2022-11-27T07:21:24.687Z,21.20
2022-11-27T07:23:52.402Z,21.60
2022-11-27T07:26:21.495Z,22.30
2022-11-27T07:28:49.440Z,23.00
2022-11-27T07:31:19.193Z,22.90
2022-11-27T07:33:48.254Z,22.77
2022-11-27T07:36:18.988Z,22.23
2022-11-27T07:38:47.518Z,21.60
2022-11-27T07:41:15.830Z,23.37
2022-11-27T07:43:45.189Z,22.30
2022-11-27T07:46:14.475Z,21.27
2022-11-27T07:48:42.204Z,21.30
2022-11-27T07:51:13.788Z,21.00
2022-11-27T07:53:42.359Z,21.97
2022-11-27T07:56:14.703Z,21.23
2022-11-27T07:58:42.389Z,21.20
2022-11-27T08:01:11.363Z,20.30
2022-11-27T08:03:39.307Z,21.93
2022-11-27T08:06:16.423Z,21.77
2022-11-27T08:08:44.338Z,20.43
2022-11-27T08:11:19.683Z,21.33
2022-11-27T08:13:47.447Z,20.13
2022-11-27T08:16:15.283Z,20.37
2022-11-27T08:18:43.388Z,19.93
2022-11-27T08:21:11.088Z,20.07
2022-11-27T08:23:40.051Z,18.80
2022-11-27T08:26:08.768Z,19.63
2022-11-27T08:28:36.602Z,18.63
2022-11-27T08:31:06.136Z,19.60
2022-11-27T08:33:34.298Z,18.37
2022-11-27T08:36:02.166Z,20.27
2022-11-27T08:38:30.039Z,19.87
2022-11-27T08:41:00.218Z,17.47
2022-11-27T08:43:28.146Z,19.80
2022-11-27T08:45:56.235Z,19.03
2022-11-27T08:48:24.260Z,18.10
2022-11-27T08:50:52.883Z,18.00
2022-11-27T08:53:20.717Z,20.00
2022-11-27T08:55:48.695Z,17.67
2022-11-27T08:58:17.632Z,16.27
2022-11-27T09:00:45.311Z,17.60
2022-11-27T09:03:13.316Z,15.90
2022-11-27T09:05:43.089Z,15.90
2022-11-27T09:08:12.546Z,16.10
2022-11-27T09:10:40.258Z,14.83
2022-11-27T09:13:07.895Z,17.80
2022-11-27T09:15:36.870Z,16.27
2022-11-27T09:18:04.590Z,15.27
2022-11-27T09:20:32.171Z,14.63
2022-11-27T09:23:00.446Z,14.50
2022-11-27T09:25:28.053Z,15.67
2022-11-27T09:27:55.669Z,15.60
2022-11-27T09:30:23.359Z,15.13
2022-11-27T09:32:53.181Z,14.77
2022-11-27T09:35:21.033Z,16.33
2022-11-27T09:37:48.806Z,15.00
2022-11-27T09:40:17.925Z,14.00
2022-11-27T09:42:49.996Z,14.50
2022-11-27T09:45:18.425Z,14.23
2022-11-27T09:47:50.326Z,14.23
2022-11-27T09:50:22.625Z,15.53
2022-11-27T09:52:53.660Z,14.60
2022-11-27T09:55:25.261Z,15.20
2022-11-27T09:57:57.352Z,14.93
2022-11-27T10:00:25.170Z,14.90
2022-11-27T10:02:53.885Z,13.83
2022-11-27T10:05:25.154Z,14.50
2022-11-27T10:08:06.650Z,15.60
2022-11-27T10:10:41.167Z,13.83
2022-11-27T10:13:18.224Z,13.20
2022-11-27T10:15:50.907Z,13.73
2022-11-27T10:18:24.594Z,13.20
2022-11-27T10:20:56.543Z,13.87
2022-11-27T10:23:32.393Z,13.60
2022-11-27T10:26:02.554Z,12.70
2022-11-27T10:28:36.482Z,11.83
2022-11-27T10:31:09.554Z,12.70
2022-11-27T10:33:41.757Z,14.07
2022-11-27T10:36:15.166Z,13.50
2022-11-27T10:38:43.826Z,13.20
2022-11-27T10:41:47.599Z,13.67
2022-11-27T10:44:12.879Z,13.80
2022-11-27T10:46:41.155Z,13.57
2022-11-27T10:49:10.310Z,13.93
2022-11-27T10:51:42.365Z,12.67
2022-11-27T10:54:17.357Z,13.50
2022-11-27T10:56:59.707Z,13.10
2022-11-27T10:59:34.316Z,12.80
2022-11-27T11:02:05.566Z,13.60
2022-11-27T11:04:39.031Z,11.43
2022-11-27T11:07:25.237Z,13.30
2022-11-27T11:09:53.346Z,11.50
2022-11-27T11:12:22.805Z,12.30
2022-11-27T11:14:53.861Z,12.30
2022-11-27T11:17:26.214Z,11.93
2022-11-27T11:19:53.904Z,12.70
2022-11-27T11:22:23.364Z,12.70
2022-11-27T11:24:52.855Z,12.80
2022-11-27T11:27:22.586Z,12.40
2022-11-27T11:29:52.163Z,11.73
2022-11-27T11:32:24.841Z,13.27
2022-11-27T11:35:00.610Z,12.90
2022-11-27T11:37:31.637Z,11.30
2022-11-27T11:40:01.374Z,11.77
2022-11-27T11:42:31.177Z,12.67
2022-11-27T11:45:04.649Z,12.03
2022-11-27T11:47:32.256Z,12.60
2022-11-27T11:50:00.332Z,12.23
2022-11-27T11:52:45.747Z,10.83
2022-11-27T11:55:18.920Z,10.50
2022-11-27T11:58:10.187Z,12.03
2022-11-27T12:01:11.454Z,10.73
2022-11-27T12:03:41.789Z,11.50
2022-11-27T12:06:26.694Z,12.67
2022-11-27T12:09:09.447Z,12.10
2022-11-27T12:11:45.272Z,11.10
2022-11-27T12:14:23.592Z,10.40
2022-11-27T12:17:01.539Z,9.70
2022-11-27T12:19:43.033Z,10.70
2022-11-27T12:22:19.641Z,11.40
2022-11-27T12:24:56.790Z,11.13
2022-11-27T12:27:30.735Z,11.00
2022-11-27T12:30:09.828Z,10.53
2022-11-27T12:32:56.479Z,9.90
2022-11-27T12:35:32.304Z,10.93
2022-11-27T12:38:09.661Z,10.27
2022-11-27T12:40:51.489Z,9.70
2022-11-27T12:43:27.499Z,10.07
2022-11-27T12:46:00.370Z,10.90
2022-11-27T12:48:32.372Z,10.23
2022-11-27T12:51:02.465Z,10.97
2022-11-27T12:53:35.804Z,9.53
2022-11-27T12:56:17.299Z,9.07
2022-11-27T12:58:48.040Z,10.60
2022-11-27T13:01:23.649Z,10.13
2022-11-27T13:04:02.663Z,11.13
2022-11-27T13:06:33.113Z,10.70
2022-11-27T13:09:03.973Z,10.40
2022-11-27T13:11:34.522Z,9.80
2022-11-27T13:14:06.308Z,8.67
2022-11-27T13:16:38.083Z,9.70
2022-11-27T13:19:11.199Z,10.43
2022-11-27T13:21:40.559Z,10.20
2022-11-27T13:24:12.721Z,10.10
2022-11-27T13:26:45.312Z,11.20
2022-11-27T13:29:20.111Z,8.73
2022-11-27T13:31:54.255Z,8.83
2022-11-27T13:34:25.951Z,10.80
2022-11-27T13:37:00.719Z,9.17
2022-11-27T13:39:34.235Z,10.80
2022-11-27T13:42:22.510Z,9.93
2022-11-27T13:44:54.521Z,9.40
2022-11-27T13:47:24.173Z,9.50
2022-11-27T13:49:59.919Z,11.40
2022-11-27T13:52:27.462Z,9.07
2022-11-27T13:54:56.121Z,10.20
2022-11-27T13:57:26.640Z,10.40
2022-11-27T14:00:00.138Z,8.70
2022-11-27T14:02:42.040Z,9.40
2022-11-27T14:05:10.544Z,10.53
2022-11-27T14:07:42.482Z,10.03
2022-11-27T14:10:13.700Z,9.53
2022-11-27T14:12:43.103Z,10.10
2022-11-27T14:15:13.442Z,9.67
2022-11-27T14:17:43.420Z,9.90
2022-11-27T14:20:24.027Z,9.77
2022-11-27T14:23:12.489Z,9.60
2022-11-27T14:25:40.930Z,9.73
2022-11-27T14:28:16.117Z,10.30
2022-11-27T14:30:47.380Z,9.33
2022-11-27T14:33:22.885Z,8.93
2022-11-27T14:35:51.999Z,9.07
2022-11-27T14:38:20.990Z,9.43
2022-11-27T14:40:53.294Z,9.50
2022-11-27T14:43:26.078Z,8.60
2022-11-27T14:45:56.172Z,8.83
2022-11-27T14:48:26.161Z,8.97
2022-11-27T14:50:55.617Z,7.60
2022-11-27T14:53:26.301Z,9.30
2022-11-27T14:55:57.495Z,8.83
2022-11-27T14:58:28.118Z,8.77
2022-11-27T15:00:58.603Z,8.10
2022-11-27T15:03:30.022Z,10.10
2022-11-27T15:06:00.950Z,9.43
2022-11-27T15:11:56.512Z,10.00
2022-11-27T15:17:37.208Z,8.30
2022-11-27T15:20:19.475Z,9.03
2022-11-27T15:22:54.828Z,9.80
2022-11-27T15:25:46.043Z,9.73
2022-11-27T15:28:30.934Z,10.27
2022-11-27T15:31:01.115Z,10.73
2022-11-27T15:33:38.909Z,10.53
2022-11-27T15:36:16.352Z,11.10
2022-11-27T15:38:45.516Z,11.70
2022-11-27T15:41:25.557Z,11.10
2022-11-27T15:43:54.514Z,11.83
2022-11-27T15:46:26.332Z,10.87
2022-11-27T15:48:56.292Z,12.80
2022-11-27T15:51:25.526Z,11.97
2022-11-27T15:53:53.509Z,10.83
2022-11-27T15:56:25.119Z,10.87
2022-11-27T15:59:01.886Z,10.60
2022-11-27T16:01:40.225Z,11.37
2022-11-27T16:04:09.019Z,12.43
2022-11-27T16:06:39.676Z,10.80
2022-11-27T16:09:15.340Z,11.50
2022-11-27T16:11:44.745Z,10.83
2022-11-27T16:14:13.401Z,11.50
2022-11-27T16:16:43.281Z,10.47
2022-11-27T16:19:12.467Z,11.07
2022-11-27T16:21:40.264Z,11.07
2022-11-27T16:24:13.622Z,11.03
2022-11-27T16:26:41.996Z,9.87
2022-11-27T16:29:10.473Z,9.37
2022-11-27T16:31:38.958Z,10.30
2022-11-27T16:34:10.528Z,9.33
2022-11-27T16:36:42.034Z,11.67
2022-11-27T16:39:11.426Z,10.50
2022-11-27T16:41:43.324Z,9.13
2022-11-27T16:44:12.842Z,9.53
2022-11-27T16:46:44.110Z,10.87
2022-11-27T16:49:13.593Z,10.80
2022-11-27T16:51:43.157Z,11.80
2022-11-27T16:54:13.627Z,11.57
2022-11-27T16:56:43.215Z,11.30
2022-11-27T16:59:11.621Z,11.17
2022-11-27T17:01:41.704Z,11.67
2022-11-27T17:04:16.357Z,12.60
2022-11-27T17:06:43.973Z,13.03
2022-11-27T17:09:11.616Z,12.63
2022-11-27T17:11:42.806Z,13.60
2022-11-27T17:14:10.711Z,12.83
2022-11-27T17:16:39.960Z,12.10
2022-11-27T17:19:10.212Z,13.50
2022-11-27T17:21:40.073Z,14.23
2022-11-27T17:24:14.764Z,12.10
2022-11-27T17:26:45.726Z,14.20
2022-11-27T17:29:14.668Z,13.97
2022-11-27T17:31:42.483Z,12.83
2022-11-27T17:34:12.712Z,12.30
2022-11-27T17:36:43.154Z,13.40
2022-11-27T17:39:13.010Z,12.37
2022-11-27T17:41:41.025Z,13.40
2022-11-27T17:44:08.774Z,15.30
2022-11-27T17:46:36.900Z,12.77
2022-11-27T17:49:06.849Z,12.40
2022-11-27T17:51:36.376Z,12.60
2022-11-27T17:54:06.010Z,12.70
2022-11-27T17:56:34.938Z,12.73
2022-11-27T17:59:03.164Z,13.60
2022-11-27T18:01:33.631Z,13.17
2022-11-27T18:04:03.980Z,13.00
2022-11-27T18:06:32.822Z,13.53
2022-11-27T18:09:00.548Z,13.47
2022-11-27T18:11:31.637Z,13.70
2022-11-27T18:14:02.575Z,13.00
2022-11-27T18:16:33.113Z,13.00
2022-11-27T18:19:03.659Z,13.67
2022-11-27T18:21:31.313Z,14.53
2022-11-27T18:29:35.988Z,13.60
2022-11-27T18:32:03.611Z,13.37
2022-11-27T18:34:31.302Z,13.17
2022-11-27T18:36:59.684Z,14.33
2022-11-27T18:39:27.495Z,14.00
2022-11-27T18:41:56.525Z,14.60
2022-11-27T18:44:24.318Z,13.70
2022-11-27T18:46:52.022Z,13.87
2022-11-27T18:49:19.799Z,14.90
2022-11-27T18:51:47.495Z,12.00
2022-11-27T18:54:15.127Z,14.20
2022-11-27T18:56:42.990Z,13.17
2022-11-27T18:59:12.061Z,14.67
2022-11-27T19:01:42.633Z,12.83
2022-11-27T19:04:13.356Z,13.10
2022-11-27T19:06:42.540Z,14.50
2022-11-27T19:09:12.404Z,13.67
2022-11-27T19:11:41.311Z,13.17
2022-11-27T19:14:10.196Z,13.67
2022-11-27T19:16:44.262Z,13.60
2022-11-27T19:19:51.993Z,12.23
2022-11-27T19:22:04.237Z,12.87
2022-11-27T19:24:32.695Z,12.60
2022-11-27T19:27:01.057Z,12.50
2022-11-27T19:29:28.984Z,13.40
2022-11-27T19:31:58.902Z,13.00
2022-11-27T19:34:26.632Z,40.07
2022-11-27T19:36:54.254Z,14.77
2022-11-27T19:39:21.926Z,13.60
2022-11-27T19:41:49.853Z,12.90
2022-11-27T19:44:17.719Z,14.60
2022-11-27T19:46:46.799Z,15.57
2022-11-27T19:49:18.230Z,14.07
2022-11-27T19:51:46.881Z,14.30
2022-11-27T19:54:15.703Z,14.40
2022-11-27T19:56:43.910Z,13.70
2022-11-27T19:59:13.215Z,14.10
2022-11-27T20:01:41.827Z,14.03
2022-11-27T20:04:12.444Z,13.17
2022-11-27T20:06:41.743Z,12.73
2022-11-27T20:09:09.528Z,13.60
2022-11-27T20:11:37.703Z,13.60
2022-11-27T20:14:06.586Z,14.40
2022-11-27T20:16:35.030Z,13.70
2022-11-27T20:19:05.344Z,12.80
2022-11-27T20:21:35.482Z,13.60
2022-11-27T20:24:05.943Z,13.30
2022-11-27T20:26:36.175Z,12.93
2022-11-27T20:29:08.015Z,12.60
2022-11-27T20:31:37.493Z,14.30
2022-11-27T20:34:07.083Z,12.97
2022-11-27T20:36:38.358Z,13.93
2022-11-27T20:39:07.329Z,12.10
2022-11-27T20:41:34.905Z,11.83
2022-11-27T20:44:04.639Z,13.10
2022-11-27T20:46:33.469Z,13.07
2022-11-27T20:49:02.257Z,21.07
2022-11-27T20:51:33.823Z,16.20
2022-11-27T20:54:11.565Z,13.50
2022-11-27T20:56:40.848Z,12.70
2022-11-27T20:59:08.846Z,12.50
2022-11-27T21:01:39.452Z,11.97
2022-11-27T21:04:09.469Z,13.60
2022-11-27T21:06:43.432Z,10.70
2022-11-27T21:09:14.287Z,11.23
2022-11-27T21:11:43.538Z,11.87
2022-11-27T21:14:12.744Z,12.47
2022-11-27T21:16:42.927Z,12.17
2022-11-27T21:19:15.054Z,12.10
2022-11-27T21:21:43.284Z,11.70
2022-11-27T21:24:12.851Z,12.60
2022-11-27T21:26:41.560Z,11.50
2022-11-27T21:29:10.254Z,12.57
2022-11-27T21:31:39.981Z,12.77
2022-11-27T21:34:11.861Z,11.00
2022-11-27T21:36:40.445Z,11.87
2022-11-27T21:39:10.160Z,12.53
2022-11-27T21:41:39.275Z,12.60
2022-11-27T21:44:07.387Z,12.73
2022-11-27T21:46:36.239Z,12.40
2022-11-27T21:49:07.204Z,13.17
2022-11-27T21:51:39.739Z,11.83
2022-11-27T21:54:09.653Z,12.43
2022-11-27T21:56:40.206Z,11.57
2022-11-27T21:59:09.873Z,12.80
2022-11-27T22:01:37.639Z,13.30
2022-11-27T22:04:05.897Z,10.80
2022-11-27T22:06:37.801Z,13.07
2022-11-27T22:09:10.510Z,11.27
2022-11-27T22:11:42.555Z,12.37
2022-11-27T22:14:10.442Z,12.37
2022-11-27T22:16:44.707Z,12.23
2022-11-27T22:19:14.051Z,11.33
2022-11-27T22:21:42.355Z,11.70
2022-11-27T22:24:15.018Z,12.77
2022-11-27T22:26:48.677Z,12.73
2022-11-27T22:29:16.565Z,11.40
2022-11-27T22:31:44.197Z,11.73
2022-11-27T22:34:11.904Z,11.93
2022-11-27T22:36:40.535Z,11.67
2022-11-27T22:39:09.261Z,11.37
2022-11-27T22:41:38.531Z,11.77
2022-11-27T22:44:08.226Z,12.57
2022-11-27T22:46:36.978Z,12.30
2022-11-27T22:49:06.509Z,12.47
2022-11-27T22:51:36.306Z,12.90
2022-11-27T22:54:05.548Z,11.70
2022-11-27T22:56:34.489Z,12.07
2022-11-27T22:59:30.612Z,12.63
2022-11-27T23:01:51.478Z,12.37
2022-11-27T23:04:19.232Z,12.37
2022-11-27T23:06:48.334Z,13.00
2022-11-27T23:09:17.742Z,11.57
2022-11-27T23:11:47.622Z,11.73
2022-11-27T23:14:15.264Z,13.27
2022-11-27T23:16:43.157Z,12.60
2022-11-27T23:19:12.634Z,12.80
2022-11-27T23:21:40.484Z,12.70
2022-11-27T23:24:10.583Z,10.50
2022-11-27T23:26:38.241Z,13.17
2022-11-27T23:29:05.984Z,11.00
2022-11-27T23:31:35.595Z,12.07
2022-11-27T23:34:05.380Z,11.77
2022-11-27T23:36:34.888Z,12.20
2022-11-27T23:39:04.545Z,11.20
2022-11-27T23:41:32.562Z,11.40
2022-11-27T23:44:01.410Z,12.03
2022-11-27T23:46:31.721Z,12.40
2022-11-27T23:49:01.005Z,10.83
2022-11-27T23:51:30.868Z,11.63
2022-11-27T23:54:00.248Z,11.90
2022-11-27T23:56:29.392Z,11.53
2022-11-27T23:58:57.724Z,11.53
